Time;durP1;ratioP1;P1;durP2;ratioP2;P2;SDS_P1;SDS_P2;PMS_P1;PMS_P2;Temp;Humidity;BMP_temperature;BMP_pressure;BME280_temperature;BME280_humidity;BME280_pressure;Samples;Min_cycle;Max_cycle;Signal;HPM_P1;HPM_P2
2022/10/19 00:00:04;;;;;;;6.97;3.15;;;;;;;10.94;100.00;98915.56;5172824;27;20485;-51
2022/10/19 00:02:30;;;;;;;15.30;3.53;;;;;;;10.91;100.00;98910.03;5172830;27;20057;-55
2022/10/19 00:04:56;;;;;;;10.35;3.40;;;;;;;10.91;100.00;98901.81;5173061;27;20046;-54
2022/10/19 00:07:23;;;;;;;13.82;4.05;;;;;;;10.85;100.00;98904.06;5172766;27;20106;-50
2022/10/19 00:09:50;;;;;;;16.60;3.90;;;;;;;10.91;100.00;98913.56;5173044;27;20049;-53
2022/10/19 00:12:16;;;;;;;16.95;3.97;;;;;;;10.98;100.00;98908.16;5172839;27;20046;-52
2022/10/19 00:14:42;;;;;;;7.57;3.10;;;;;;;10.96;100.00;98915.97;5172695;27;20058;-51
2022/10/19 00:17:09;;;;;;;7.35;3.28;;;;;;;11.11;100.00;98913.41;5173048;27;20050;-55
2022/10/19 00:19:35;;;;;;;11.68;4.30;;;;;;;10.99;100.00;98897.97;5172398;27;20061;-54
2022/10/19 00:22:01;;;;;;;7.18;3.65;;;;;;;11.11;100.00;98869.50;5173039;27;20057;-52
2022/10/19 00:24:27;;;;;;;7.93;3.63;;;;;;;11.01;100.00;98871.75;5172344;27;20412;-54
2022/10/19 00:26:54;;;;;;;9.68;3.95;;;;;;;11.07;100.00;98862.03;5172663;27;20054;-54
2022/10/19 00:29:20;;;;;;;8.32;3.33;;;;;;;10.73;100.00;98863.16;5172583;27;20143;-53
2022/10/19 00:31:48;;;;;;;7.70;3.03;;;;;;;10.80;100.00;98850.34;5172652;27;20571;-51
2022/10/19 00:34:14;;;;;;;12.82;4.00;;;;;;;11.02;100.00;98834.91;5172519;27;20046;-54
2022/10/19 00:36:41;;;;;;;7.10;3.50;;;;;;;10.94;100.00;98846.97;5172698;27;20069;-54
2022/10/19 00:39:11;;;;;;;12.70;4.00;;;;;;;10.96;100.00;98857.56;5172659;27;20050;-54
2022/10/19 00:41:38;;;;;;;11.82;4.10;;;;;;;11.00;100.00;98861.94;5172477;27;20054;-55
2022/10/19 00:44:07;;;;;;;13.20;3.92;;;;;;;10.92;100.00;98870.47;5172273;27;20097;-54
2022/10/19 00:46:35;;;;;;;12.07;4.10;;;;;;;10.91;100.00;98888.88;5172293;27;20069;-54
2022/10/19 00:49:08;;;;;;;5.30;3.15;;;;;;;10.50;100.00;98887.97;5172169;27;20440;-53
2022/10/19 00:51:36;;;;;;;7.57;3.33;;;;;;;10.49;100.00;98878.94;5172299;27;20054;-52
2022/10/19 00:54:05;;;;;;;16.10;4.50;;;;;;;10.67;100.00;98876.44;5172229;27;20050;-52
2022/10/19 00:56:31;;;;;;;13.48;3.50;;;;;;;10.68;100.00;98879.97;5172127;27;20567;-53
2022/10/19 00:58:58;;;;;;;18.48;3.55;;;;;;;10.66;100.00;98888.53;5172068;27;20099;-53
2022/10/19 01:01:28;;;;;;;14.65;4.18;;;;;;;10.49;100.00;98875.41;5171958;27;20417;-54
2022/10/19 01:03:54;;;;;;;9.85;4.00;;;;;;;10.43;100.00;98869.47;5172203;27;20054;-53
2022/10/19 01:06:22;;;;;;;6.93;3.72;;;;;;;10.46;100.00;98857.78;5171998;27;20498;-53
2022/10/19 01:08:48;;;;;;;8.18;3.33;;;;;;;10.50;100.00;98850.38;5171961;27;20090;-53
2022/10/19 01:11:26;;;;;;;6.80;3.10;;;;;;;10.64;100.00;98863.47;5171969;27;20046;-54
2022/10/19 01:14:04;;;;;;;7.93;4.15;;;;;;;10.57;100.00;98866.13;5171870;27;20046;-54
2022/10/19 01:16:45;;;;;;;8.85;3.67;;;;;;;10.22;100.00;98856.22;5172192;27;20054;-53
2022/10/19 01:19:39;;;;;;;9.80;3.20;;;;;;;10.23;100.00;98840.56;5175451;27;20046;-54
2022/10/19 01:22:18;;;;;;;13.85;4.25;;;;;;;10.50;100.00;98839.41;5175822;27;20417;-54
2022/10/19 01:24:56;;;;;;;8.30;3.88;;;;;;;10.39;100.00;98837.69;5175768;27;20493;-53
2022/10/19 01:27:54;;;;;;;7.53;3.78;;;;;;;10.17;100.00;98848.34;5175613;27;20046;-55
2022/10/19 01:30:33;;;;;;;9.63;3.75;;;;;;;10.14;100.00;98849.84;5174794;27;20416;-54
2022/10/19 01:33:11;;;;;;;10.10;3.40;;;;;;;10.06;100.00;98833.69;5175328;27;20050;-52
2022/10/19 01:35:44;;;;;;;10.50;3.50;;;;;;;10.13;100.00;98825.59;5175397;27;20046;-52
2022/10/19 01:38:22;;;;;;;12.10;3.53;;;;;;;10.21;100.00;98827.25;5175260;27;20398;-51
2022/10/19 01:40:56;;;;;;;15.52;3.80;;;;;;;10.28;100.00;98841.06;5175114;27;20497;-53
2022/10/19 01:43:33;;;;;;;9.90;4.40;;;;;;;10.28;100.00;98851.25;5175070;27;20053;-50
2022/10/19 01:46:08;;;;;;;15.63;3.50;;;;;;;10.21;100.00;98871.09;5175293;27;20046;-54
2022/10/19 01:48:38;;;;;;;6.43;3.17;;;;;;;10.02;100.00;98873.91;5175301;27;20158;-53
2022/10/19 01:51:07;;;;;;;12.88;3.78;;;;;;;9.98;100.00;98895.78;5175098;27;20075;-52
2022/10/19 01:53:38;;;;;;;20.85;3.80;;;;;;;9.87;100.00;98887.41;5175224;27;20094;-54
2022/10/19 01:56:06;;;;;;;9.65;3.00;;;;;;;9.94;100.00;98883.19;5175073;27;20054;-51
2022/10/19 01:58:36;;;;;;;9.38;2.88;;;;;;;9.73;100.00;98881.69;5175034;27;20527;-52
2022/10/19 02:01:05;;;;;;;17.10;3.55;;;;;;;9.76;100.00;98880.94;5175023;27;20105;-53
2022/10/19 02:03:33;;;;;;;9.82;3.15;;;;;;;9.95;100.00;98876.56;5174792;27;20054;-52
2022/10/19 02:06:03;;;;;;;11.15;3.30;;;;;;;9.95;100.00;98882.81;5174822;27;20141;-54
2022/10/19 02:08:37;;;;;;;13.40;4.80;;;;;;;9.69;100.00;98880.03;5174678;27;20224;-51
2022/10/19 02:11:03;;;;;;;;;;;;;;;9.58;100.00;98864.22;5175346;27;20046;-51
2022/10/19 02:13:31;;;;;;;20.55;3.72;;;;;;;9.54;100.00;98860.66;5174697;27;20396;-51
2022/10/19 02:16:02;;;;;;;10.18;3.47;;;;;;;9.54;100.00;98873.53;5174795;27;20049;-54
2022/10/19 02:18:33;;;;;;;10.88;4.38;;;;;;;9.39;100.00;98867.81;5174589;27;20151;-51
2022/10/19 02:21:01;;;;;;;9.32;3.28;;;;;;;9.80;100.00;98865.38;5174890;27;20046;-54
2022/10/19 02:23:27;;;;;;;6.93;3.00;;;;;;;9.78;100.00;98869.63;5174402;27;20058;-51
2022/10/19 02:25:55;;;;;;;11.77;2.90;;;;;;;9.82;100.00;98882.22;5174820;27;20102;-51
2022/10/19 02:28:22;;;;;;;9.55;3.13;;;;;;;9.83;100.00;98922.16;5173562;27;20077;-52
2022/10/19 02:30:48;;;;;;;13.02;3.10;;;;;;;9.72;100.00;98912.94;5174229;27;20099;-54
2022/10/19 02:33:15;;;;;;;13.18;3.30;;;;;;;9.86;100.00;98915.94;5174311;27;20042;-54
2022/10/19 02:35:42;;;;;;;11.75;3.20;;;;;;;10.02;100.00;98918.53;5174620;27;20046;-53
2022/10/19 02:38:14;;;;;;;9.82;2.75;;;;;;;10.10;100.00;98939.41;5174158;27;20090;-53
2022/10/19 02:40:44;;;;;;;11.93;3.33;;;;;;;9.97;100.00;98954.44;5174224;27;20520;-53
2022/10/19 02:43:18;;;;;;;14.60;2.50;;;;;;;10.16;100.00;98945.34;5174509;27;20094;-53
2022/10/19 02:45:50;;;;;;;8.27;2.53;;;;;;;10.14;100.00;98958.63;5174073;27;20046;-54
2022/10/19 02:48:21;;;;;;;10.32;2.97;;;;;;;10.11;100.00;98989.50;5174830;27;20050;-55
2022/10/19 02:50:48;;;;;;;14.38;4.63;;;;;;;9.59;100.00;99001.84;5173895;27;20050;-51
2022/10/19 02:53:14;;;;;;;9.90;2.80;;;;;;;9.44;100.00;98976.19;5174081;27;20042;-53
2022/10/19 02:55:41;;;;;;;10.18;2.72;;;;;;;9.84;100.00;98970.25;5174026;27;20054;-51
2022/10/19 02:58:08;;;;;;;17.45;2.90;;;;;;;9.39;100.00;98974.50;5173965;27;20057;-54
2022/10/19 03:00:34;;;;;;;8.57;2.78;;;;;;;9.52;100.00;98931.34;5173962;27;20050;-54
2022/10/19 03:03:01;;;;;;;8.35;2.80;;;;;;;9.62;100.00;98935.44;5174040;27;20046;-51
2022/10/19 03:05:28;;;;;;;15.82;3.75;;;;;;;9.62;100.00;98916.28;5173795;27;20136;-54
2022/10/19 03:07:55;;;;;;;20.13;3.10;;;;;;;9.75;100.00;98916.91;5173750;27;20051;-51
2022/10/19 03:10:21;;;;;;;15.00;3.88;;;;;;;9.80;100.00;98903.72;5173723;27;20513;-54
2022/10/19 03:12:47;;;;;;;15.10;3.55;;;;;;;9.86;100.00;98909.66;5173752;27;20046;-54
2022/10/19 03:15:14;;;;;;;6.00;3.00;;;;;;;9.95;100.00;98915.66;5174279;27;20367;-53
2022/10/19 03:17:40;;;;;;;11.55;3.55;;;;;;;9.90;100.00;98918.75;5173874;27;20513;-52
2022/10/19 03:20:08;;;;;;;13.25;2.85;;;;;;;9.89;100.00;98920.66;5173829;27;20049;-53
2022/10/19 03:22:34;;;;;;;14.13;3.10;;;;;;;9.74;100.00;98918.84;5174092;27;20457;-52
2022/10/19 03:25:01;;;;;;;16.08;2.80;;;;;;;10.02;100.00;98901.31;5173886;27;20109;-54
2022/10/19 03:27:27;;;;;;;6.60;2.67;;;;;;;10.01;100.00;98913.44;5173577;27;20179;-54
2022/10/19 03:29:53;;;;;;;6.43;2.63;;;;;;;10.07;100.00;98911.97;5173426;27;20060;-50
2022/10/19 03:32:19;;;;;;;8.10;3.03;;;;;;;9.89;100.00;98897.97;5173591;27;20042;-52
2022/10/19 03:34:46;;;;;;;16.83;3.10;;;;;;;10.04;100.00;98890.78;5173246;27;20042;-53
2022/10/19 03:37:14;;;;;;;20.38;3.78;;;;;;;10.12;100.00;98897.94;5173425;27;20046;-54
2022/10/19 03:39:40;;;;;;;12.73;3.35;;;;;;;10.12;100.00;98881.50;5172904;27;20506;-54
2022/10/19 03:42:07;;;;;;;9.10;3.60;;;;;;;10.07;100.00;98904.53;5173751;27;20042;-55
2022/10/19 03:44:33;;;;;;;14.77;3.67;;;;;;;9.92;100.00;98902.72;5173282;27;20050;-56
2022/10/19 03:46:59;;;;;;;20.33;3.75;;;;;;;10.06;100.00;98892.00;5173590;27;20042;-54
2022/10/19 03:49:25;;;;;;;11.88;3.22;;;;;;;10.24;100.00;98896.94;5173279;27;20050;-54
2022/10/19 03:51:51;;;;;;;14.80;4.40;;;;;;;10.11;100.00;98894.41;5173702;27;20519;-54
2022/10/19 03:54:18;;;;;;;16.40;3.40;;;;;;;10.38;100.00;98885.44;5173357;27;20042;-55
2022/10/19 03:56:44;;;;;;;12.65;3.28;;;;;;;10.32;100.00;98906.88;5173213;27;20516;-52
2022/10/19 03:59:13;;;;;;;13.60;4.03;;;;;;;10.35;100.00;98901.44;5173102;27;20428;-54
2022/10/19 04:01:41;;;;;;;11.18;4.13;;;;;;;10.14;100.00;98901.91;5173161;27;20042;-52
2022/10/19 04:04:11;;;;;;;14.40;3.47;;;;;;;10.05;100.00;98893.13;5173318;27;20052;-54
2022/10/19 04:06:40;;;;;;;16.85;3.20;;;;;;;10.25;100.00;98882.09;5173115;27;20433;-54
2022/10/19 04:09:07;;;;;;;11.35;4.13;;;;;;;10.44;100.00;98882.00;5172906;27;20050;-52
2022/10/19 04:11:34;;;;;;;14.07;4.10;;;;;;;10.42;100.00;98906.25;5172999;27;20046;-54
2022/10/19 04:14:01;;;;;;;7.85;3.75;;;;;;;10.45;100.00;98891.00;5173338;27;20042;-53
2022/10/19 04:16:29;;;;;;;11.73;3.35;;;;;;;10.05;100.00;98893.13;5172982;27;20050;-55
2022/10/19 04:18:56;;;;;;;7.32;2.95;;;;;;;10.50;100.00;98868.78;5172933;27;20929;-54
2022/10/19 04:21:23;;;;;;;14.82;3.83;;;;;;;10.60;100.00;98890.06;5172962;27;20042;-55
2022/10/19 04:23:51;;;;;;;14.70;3.95;;;;;;;10.46;100.00;98922.72;5172771;27;20050;-51
2022/10/19 04:26:17;;;;;;;15.27;3.55;;;;;;;10.51;100.00;98906.75;5172900;27;20050;-53
2022/10/19 04:28:43;;;;;;;12.25;3.85;;;;;;;10.54;100.00;98897.81;5172905;27;20573;-53
2022/10/19 04:31:11;;;;;;;10.80;3.15;;;;;;;10.61;100.00;98916.28;5172616;27;20876;-51
2022/10/19 04:33:38;;;;;;;12.25;2.88;;;;;;;10.46;100.00;98931.75;5172700;27;20042;-52
2022/10/19 04:36:07;;;;;;;17.77;3.38;;;;;;;10.30;100.00;98918.22;5173060;27;20461;-53
2022/10/19 04:38:34;;;;;;;13.48;3.60;;;;;;;10.57;100.00;98897.06;5172383;27;20398;-55
2022/10/19 04:41:02;;;;;;;11.40;2.95;;;;;;;10.59;100.00;98880.22;5172594;27;20042;-55
2022/10/19 04:43:28;;;;;;;8.40;3.60;;;;;;;10.75;100.00;98900.03;5172223;27;20046;-54
2022/10/19 04:45:54;;;;;;;9.27;3.47;;;;;;;10.72;100.00;98906.25;5172245;27;20050;-54
2022/10/19 04:48:21;;;;;;;15.85;3.92;;;;;;;10.70;100.00;98911.34;5172188;27;20076;-55
2022/10/19 04:50:48;;;;;;;8.88;3.72;;;;;;;10.46;100.00;98909.84;5172191;27;20042;-53
2022/10/19 04:53:14;;;;;;;7.70;3.03;;;;;;;10.63;100.00;98904.94;5171531;27;20043;-54
2022/10/19 04:55:40;;;;;;;8.30;2.90;;;;;;;10.57;100.00;98907.25;5172379;27;20462;-51
2022/10/19 04:58:06;;;;;;;9.60;3.25;;;;;;;10.78;100.00;98903.97;5172096;27;20046;-51
2022/10/19 05:00:32;;;;;;;9.98;4.22;;;;;;;10.41;100.00;98912.88;5171941;27;20054;-53
2022/10/19 05:02:59;;;;;;;9.75;2.90;;;;;;;10.35;100.00;98909.66;5172269;27;20046;-54
2022/10/19 05:05:25;;;;;;;9.57;3.20;;;;;;;10.52;100.00;98899.31;5171701;27;20500;-51
2022/10/19 05:07:52;;;;;;;9.05;3.10;;;;;;;10.78;100.00;98907.50;5172237;27;20069;-54
2022/10/19 05:10:18;;;;;;;9.02;2.85;;;;;;;10.63;100.00;98930.44;5171746;27;20054;-54
2022/10/19 05:12:44;;;;;;;9.98;3.65;;;;;;;10.80;100.00;98912.63;5171819;27;20052;-53
2022/10/19 05:15:11;;;;;;;21.05;7.10;;;;;;;10.84;100.00;98897.00;5171738;27;20114;-59
2022/10/19 05:17:37;;;;;;;10.10;2.88;;;;;;;10.73;100.00;98915.25;5171719;27;20047;-63
2022/10/19 05:20:04;;;;;;;8.63;3.80;;;;;;;10.76;100.00;98937.28;5171611;27;20054;-63
2022/10/19 05:22:30;;;;;;;6.53;2.78;;;;;;;11.03;100.00;98934.47;5171811;27;20054;-58
2022/10/19 05:24:57;;;;;;;10.02;2.60;;;;;;;10.97;100.00;98957.91;5171612;27;20050;-63
2022/10/19 05:27:23;;;;;;;6.68;2.50;;;;;;;10.96;100.00;98964.53;5171646;27;20513;-61
2022/10/19 05:29:49;;;;;;;6.93;2.38;;;;;;;11.20;100.00;98979.75;5171491;27;20551;-60
2022/10/19 05:32:15;;;;;;;8.57;2.30;;;;;;;11.03;100.00;98978.38;5171499;27;20050;-61
2022/10/19 05:34:41;;;;;;;6.70;2.10;;;;;;;11.13;100.00;98972.22;5171893;27;20046;-62
2022/10/19 05:37:08;;;;;;;5.90;2.17;;;;;;;11.32;100.00;98987.72;5171439;27;20520;-58
2022/10/19 05:39:35;;;;;;;7.82;2.55;;;;;;;11.25;100.00;98990.38;5171699;27;20405;-61
2022/10/19 05:42:02;;;;;;;7.60;2.40;;;;;;;11.31;100.00;98989.69;5171391;27;20556;-62
2022/10/19 05:44:28;;;;;;;5.30;2.63;;;;;;;11.36;100.00;99001.47;5171306;27;20530;-61
2022/10/19 05:46:54;;;;;;;5.05;2.25;;;;;;;11.51;100.00;99011.47;5171329;27;20099;-63
2022/10/19 05:49:21;;;;;;;8.02;2.35;;;;;;;11.43;100.00;99009.81;5171306;27;20050;-65
2022/10/19 05:51:48;;;;;;;7.20;2.53;;;;;;;11.27;100.00;98999.84;5171342;27;20042;-65
2022/10/19 05:54:15;;;;;;;8.32;2.00;;;;;;;11.37;100.00;99001.13;5171109;27;20450;-60
2022/10/19 05:56:42;;;;;;;8.75;2.05;;;;;;;11.46;100.00;98996.16;5171258;27;20046;-61
2022/10/19 05:59:14;;;;;;;7.95;2.03;;;;;;;11.54;100.00;98994.25;5171032;27;20042;-60
2022/10/19 06:01:40;;;;;;;5.60;2.35;;;;;;;11.65;100.00;98997.91;5171615;27;20054;-60
2022/10/19 06:04:06;;;;;;;9.30;2.17;;;;;;;11.52;100.00;98999.31;5173240;27;20569;-59
2022/10/19 06:06:33;;;;;;;3.80;2.28;;;;;;;11.46;100.00;98987.91;5174873;27;20485;-59
2022/10/19 06:09:00;;;;;;;7.53;2.25;;;;;;;11.70;100.00;98988.56;5174706;27;20046;-59
2022/10/19 06:11:28;;;;;;;5.38;2.67;;;;;;;11.63;100.00;98989.28;5174711;27;20060;-61
2022/10/19 06:13:56;;;;;;;5.95;2.10;;;;;;;11.60;100.00;98989.22;5174460;27;20050;-61
2022/10/19 06:16:24;;;;;;;5.22;2.25;;;;;;;11.66;100.00;98979.47;5174362;27;20050;-60
2022/10/19 06:18:52;;;;;;;10.55;2.70;;;;;;;11.78;100.00;98969.00;5174291;27;20415;-61
2022/10/19 06:21:20;;;;;;;5.82;2.60;;;;;;;11.74;100.00;98950.94;5174353;27;20103;-61
2022/10/19 06:23:49;;;;;;;4.90;2.10;;;;;;;11.68;100.00;98958.72;5174051;27;20042;-61
2022/10/19 06:26:16;;;;;;;5.25;2.42;;;;;;;11.62;100.00;98965.69;5174253;27;20420;-61
2022/10/19 06:28:43;;;;;;;5.93;2.05;;;;;;;11.73;100.00;98954.84;5174540;27;20054;-61
2022/10/19 06:31:11;;;;;;;9.35;3.17;;;;;;;11.43;100.00;98965.88;5173758;27;20054;-60
2022/10/19 06:33:39;;;;;;;18.20;7.75;;;;;;;11.67;100.00;98981.84;5174383;27;20137;-61
2022/10/19 06:36:06;;;;;;;6.10;2.75;;;;;;;11.68;100.00;98977.94;5172141;27;20099;-57
2022/10/19 06:38:33;;;;;;;4.03;1.90;;;;;;;11.71;100.00;98973.66;5174474;27;20086;-60
2022/10/19 06:40:59;;;;;;;3.95;1.70;;;;;;;11.89;100.00;98974.63;5174492;27;20050;-54
2022/10/19 06:43:26;;;;;;;9.98;2.88;;;;;;;11.88;100.00;98975.03;5174226;27;20046;-60
2022/10/19 06:45:52;;;;;;;4.00;1.80;;;;;;;11.68;100.00;98972.44;5174287;27;20046;-62
2022/10/19 06:48:18;;;;;;;3.15;1.80;;;;;;;11.68;100.00;98977.94;5174390;27;20050;-63
2022/10/19 06:50:45;;;;;;;6.45;1.90;;;;;;;11.69;100.00;98965.00;5174316;27;20424;-63
2022/10/19 06:53:11;;;;;;;6.63;2.08;;;;;;;11.61;100.00;98961.38;5174271;27;20053;-59
2022/10/19 06:55:37;;;;;;;7.25;2.28;;;;;;;11.70;100.00;98958.34;5174352;27;20383;-60
2022/10/19 06:58:04;;;;;;;30.00;2.88;;;;;;;11.78;100.00;98959.97;5173694;27;20133;-60
2022/10/19 07:00:30;;;;;;;10.63;2.30;;;;;;;11.83;100.00;98950.59;5174057;27;20155;-61
2022/10/19 07:02:59;;;;;;;9.02;2.28;;;;;;;11.98;100.00;98953.13;5173849;27;20050;-60
2022/10/19 07:05:25;;;;;;;5.28;2.85;;;;;;;11.80;100.00;98949.41;5173772;27;20417;-61
2022/10/19 07:07:52;;;;;;;10.35;2.83;;;;;;;11.82;100.00;98951.78;5173617;27;20046;-61
2022/10/19 07:10:18;;;;;;;3.88;1.48;;;;;;;11.87;100.00;98952.25;5173450;27;20053;-61
2022/10/19 07:12:44;;;;;;;18.20;2.65;;;;;;;11.92;100.00;98948.38;5173741;27;20054;-59
2022/10/19 07:15:10;;;;;;;4.53;2.13;;;;;;;11.74;100.00;98957.22;5172628;27;20078;-59
2022/10/19 07:17:37;;;;;;;9.43;2.13;;;;;;;11.62;100.00;98956.69;5173621;27;20046;-60
2022/10/19 07:20:03;;;;;;;39.95;3.25;;;;;;;11.73;100.00;98963.09;5173334;27;20540;-61
2022/10/19 07:22:30;;;;;;;6.93;1.80;;;;;;;11.85;100.00;98964.78;5173766;27;20416;-61
2022/10/19 07:24:57;;;;;;;2.55;1.80;;;;;;;11.90;100.00;98958.97;5173247;27;20579;-59
2022/10/19 07:27:23;;;;;;;7.45;1.83;;;;;;;11.88;100.00;98972.28;5173733;27;20498;-61
2022/10/19 07:29:49;;;;;;;7.63;2.45;;;;;;;11.74;100.00;98968.19;5173104;27;20050;-62
2022/10/19 07:32:16;;;;;;;17.05;3.17;;;;;;;11.61;100.00;98966.88;5173183;27;20046;-61
2022/10/19 07:34:42;;;;;;;6.07;1.83;;;;;;;11.55;100.00;98971.91;5173376;27;20046;-61
2022/10/19 07:37:08;;;;;;;16.63;2.53;;;;;;;11.49;100.00;98978.91;5173193;27;20042;-60
2022/10/19 07:39:34;;;;;;;10.23;2.10;;;;;;;11.48;100.00;98982.03;5173058;27;20046;-60
2022/10/19 07:42:01;;;;;;;7.43;1.40;;;;;;;11.50;100.00;98979.72;5173056;27;20046;-60
2022/10/19 07:44:27;;;;;;;6.32;0.95;;;;;;;11.35;100.00;98983.44;5173140;27;20046;-61
2022/10/19 07:46:54;;;;;;;9.13;1.13;;;;;;;11.57;100.00;98985.28;5173035;27;20057;-59
2022/10/19 07:49:20;;;;;;;8.90;1.77;;;;;;;11.87;100.00;98956.97;5173319;27;20090;-60
2022/10/19 07:51:46;;;;;;;34.60;2.67;;;;;;;12.38;100.00;98946.00;5172738;27;20520;-61
2022/10/19 07:54:13;;;;;;;26.15;1.90;;;;;;;12.43;100.00;98860.41;5173223;27;20047;-61
2022/10/19 07:56:39;;;;;;;15.57;2.60;;;;;;;12.28;100.00;98842.25;5172842;27;20062;-61
2022/10/19 07:59:06;;;;;;;9.85;1.63;;;;;;;12.40;100.00;98814.44;5172862;27;20042;-60
2022/10/19 08:01:35;;;;;;;15.80;1.98;;;;;;;12.25;100.00;98749.56;5172875;27;20060;-61
2022/10/19 08:04:02;;;;;;;14.98;2.25;;;;;;;12.05;100.00;98654.91;5172892;27;20432;-60
2022/10/19 08:06:28;;;;;;;10.43;1.88;;;;;;;12.12;100.00;98576.00;5172786;27;20107;-61
2022/10/19 08:08:55;;;;;;;7.15;1.85;;;;;;;12.29;100.00;98425.28;5172639;27;20056;-61
2022/10/19 08:11:23;;;;;;;16.65;2.85;;;;;;;12.59;100.00;98307.41;5172953;27;20417;-61
2022/10/19 08:13:50;;;;;;;6.95;1.45;;;;;;;13.41;100.00;98099.72;5172756;27;20050;-62
2022/10/19 08:16:23;;;;;;;4.18;1.23;;;;;;;13.12;100.00;97994.63;5172369;27;20042;-61
2022/10/19 08:18:49;;;;;;;1.05;0.90;;;;;;;12.41;100.00;98037.31;5172509;27;20046;-62
2022/10/19 08:21:15;;;;;;;5.05;0.80;;;;;;;12.17;100.00;98203.94;5172935;27;20042;-61
2022/10/19 08:23:42;;;;;;;22.95;2.10;;;;;;;12.89;100.00;98350.88;5172438;27;20056;-61
2022/10/19 08:26:08;;;;;;;5.78;0.90;;;;;;;13.58;100.00;98167.56;5172078;27;20046;-62
2022/10/19 08:28:34;;;;;;;7.13;1.63;;;;;;;13.99;100.00;97789.22;5171842;27;20052;-62
2022/10/19 08:31:09;;;;;;;5.35;0.73;;;;;;;13.71;100.00;97666.59;5172374;27;20046;-62
2022/10/19 08:33:35;;;;;;;3.40;0.77;;;;;;;13.75;100.00;97727.88;5172548;27;20047;-62
2022/10/19 08:36:04;;;;;;;10.38;2.97;;;;;;;13.09;100.00;97764.31;5172253;27;20505;-62
2022/10/19 08:38:30;;;;;;;11.75;2.17;;;;;;;12.98;100.00;97948.00;5172375;27;20054;-62
2022/10/19 08:41:03;;;;;;;6.78;1.13;;;;;;;12.68;100.00;98059.50;5172132;27;20064;-62
2022/10/19 08:43:37;;;;;;;3.72;0.70;;;;;;;12.37;100.00;98157.50;5172430;27;20108;-62
2022/10/19 08:46:11;;;;;;;;;;;;;;;12.51;100.00;98266.59;5172562;27;20053;-62
2022/10/19 08:48:41;;;;;;;6.88;1.10;;;;;;;12.55;100.00;98259.91;5172421;27;20426;-61
2022/10/19 08:51:11;;;;;;;1.05;0.60;;;;;;;11.94;100.00;98204.41;5172198;27;20485;-63
2022/10/19 08:53:45;;;;;;;2.55;0.47;;;;;;;11.53;100.00;98311.91;5172658;27;20069;-64
2022/10/19 08:56:24;;;;;;;1.52;0.50;;;;;;;11.43;100.00;98400.47;5172375;27;20065;-63
2022/10/19 08:58:59;;;;;;;7.20;1.33;;;;;;;11.63;100.00;98488.75;5172025;27;20137;-55
2022/10/19 09:01:36;;;;;;;3.45;0.80;;;;;;;12.02;100.00;98464.16;5172011;27;20493;-57
2022/10/19 09:04:09;;;;;;;9.05;1.25;;;;;;;12.01;100.00;98309.53;5171795;27;20098;-60
2022/10/19 09:06:43;;;;;;;3.90;0.60;;;;;;;12.29;100.00;98246.66;5171965;27;20046;-64
2022/10/19 09:09:12;;;;;;;3.05;1.05;;;;;;;12.35;100.00;98190.88;5172271;27;20417;-54
2022/10/19 09:11:45;;;;;;;3.85;3.33;;;;;;;12.56;100.00;98137.75;5172117;27;20046;-56
2022/10/19 09:14:15;;;;;;;10.40;1.30;;;;;;;12.77;100.00;98097.53;5172168;27;20046;-55
2022/10/19 09:16:42;;;;;;;6.10;1.25;;;;;;;12.85;100.00;97879.78;5171938;27;20398;-54
2022/10/19 09:19:14;;;;;;;6.43;1.15;;;;;;;12.89;100.00;97951.25;5172125;27;20050;-57
2022/10/19 09:21:46;;;;;;;5.70;0.98;;;;;;;12.83;100.00;97945.44;5171853;27;20457;-62
2022/10/19 09:24:25;;;;;;;2.58;0.80;;;;;;;12.42;100.00;97929.72;5172030;27;20079;-62
2022/10/19 09:26:54;;;;;;;9.68;0.82;;;;;;;12.16;100.00;97909.16;5171557;27;20079;-63
2022/10/19 09:29:27;;;;;;;2.15;0.68;;;;;;;12.37;100.00;97965.91;5172007;27;20056;-63
2022/10/19 09:31:56;;;;;;;3.53;1.45;;;;;;;12.18;100.00;97975.47;5171756;27;20413;-61
2022/10/19 09:34:26;;;;;;;2.42;0.60;;;;;;;12.10;100.00;98069.34;5171587;27;20493;-59
2022/10/19 09:36:55;;;;;;;7.97;1.00;;;;;;;11.97;100.00;98107.47;5171242;27;20052;-58
2022/10/19 09:39:22;;;;;;;3.13;1.40;;;;;;;11.70;100.00;98134.63;5174271;27;20489;-58
2022/10/19 09:41:51;;;;;;;1.67;0.98;;;;;;;11.63;100.00;98160.13;5175156;27;20077;-56
2022/10/19 09:44:17;;;;;;;4.38;0.77;;;;;;;11.46;100.00;98204.84;5174976;27;20050;-58
2022/10/19 09:46:51;;;;;;;3.95;1.05;;;;;;;11.45;100.00;98247.19;5175377;27;20042;-58
2022/10/19 09:49:18;;;;;;;3.25;0.80;;;;;;;11.45;100.00;98343.25;5174765;27;20058;-63
2022/10/19 09:51:50;;;;;;;4.80;0.77;;;;;;;11.71;100.00;98388.78;5174870;27;20042;-64
2022/10/19 09:54:31;;;;;;;1.27;0.65;;;;;;;11.80;100.00;98312.28;5175134;27;20085;-64
2022/10/19 09:56:58;;;;;;;1.13;0.70;;;;;;;12.17;100.00;98289.09;5174782;27;20050;-64
2022/10/19 09:59:29;;;;;;;0.68;0.43;;;;;;;12.22;100.00;98121.84;5174821;27;20050;-64
2022/10/19 10:02:13;;;;;;;0.43;0.43;;;;;;;11.82;100.00;98018.84;5174850;27;20057;-63
2022/10/19 10:04:39;;;;;;;1.03;0.50;;;;;;;11.66;100.00;97958.94;5174634;27;20042;-57
2022/10/19 10:07:10;;;;;;;2.08;0.50;;;;;;;11.73;100.00;97901.22;5174401;27;20050;-61
2022/10/19 10:09:41;;;;;;;4.43;0.70;;;;;;;11.59;100.00;97989.13;5174697;27;20061;-59
2022/10/19 10:12:08;;;;;;;0.73;0.68;;;;;;;11.32;100.00;97895.59;5175029;27;20046;-59
2022/10/19 10:14:35;;;;;;;1.92;0.73;;;;;;;11.45;100.00;97855.53;5174769;27;20054;-60
2022/10/19 10:17:04;;;;;;;4.75;1.00;;;;;;;11.39;100.00;97834.41;5174794;27;20406;-59
2022/10/19 10:19:34;;;;;;;0.85;0.70;;;;;;;11.47;100.00;97803.78;5174122;27;20065;-59
2022/10/19 10:22:03;;;;;;;0.75;0.70;;;;;;;11.30;100.00;97789.00;5174822;27;20071;-60
2022/10/19 10:24:32;;;;;;;1.50;0.57;;;;;;;11.53;100.00;97796.69;5174787;27;20382;-60
2022/10/19 10:27:00;;;;;;;5.93;0.85;;;;;;;11.39;100.00;97804.22;5174800;27;20054;-59
2022/10/19 10:29:28;;;;;;;11.82;0.93;;;;;;;12.02;100.00;97794.69;5174443;27;20054;-59
2022/10/19 10:31:59;;;;;;;1.98;0.77;;;;;;;12.33;100.00;97739.00;5174474;27;20046;-60
2022/10/19 10:34:32;;;;;;;16.88;2.47;;;;;;;12.56;100.00;97719.91;5174255;27;20091;-58
2022/10/19 10:36:59;;;;;;;13.35;1.23;;;;;;;12.37;100.00;97759.00;5174589;27;20405;-60
2022/10/19 10:39:27;;;;;;;2.33;0.68;;;;;;;11.83;100.00;97811.72;5174260;27;20057;-60
2022/10/19 10:41:56;;;;;;;6.75;0.85;;;;;;;11.51;100.00;97886.09;5174091;27;20061;-59
2022/10/19 10:44:28;;;;;;;0.30;0.30;;;;;;;10.83;100.00;97936.56;5174358;27;20056;-61
2022/10/19 10:46:56;;;;;;;3.88;0.75;;;;;;;10.75;100.00;98120.63;5173928;27;20050;-58
2022/10/19 10:49:26;;;;;;;4.50;0.88;;;;;;;10.56;100.00;98256.88;5173431;27;20469;-59
2022/10/19 10:51:55;;;;;;;2.78;0.50;;;;;;;10.53;100.00;98286.97;5173658;27;20054;-57
2022/10/19 10:54:23;;;;;;;10.65;0.65;;;;;;;10.77;100.00;98286.31;5174071;27;20050;-59
2022/10/19 10:57:10;;;;;;;10.80;0.90;;;;;;;10.87;100.00;98253.81;5173687;27;20048;-58
2022/10/19 10:59:40;;;;;;;0.45;0.45;;;;;;;10.82;100.00;98194.66;5173821;27;20498;-59
2022/10/19 11:02:18;;;;;;;0.40;0.40;;;;;;;10.73;100.00;98180.53;5174349;27;20046;-58
2022/10/19 11:04:48;;;;;;;1.27;0.60;;;;;;;10.74;100.00;98204.84;5173876;27;20050;-57
2022/10/19 11:07:18;;;;;;;18.50;1.52;;;;;;;10.95;100.00;98200.53;5174017;27;20050;-58
2022/10/19 11:09:50;;;;;;;2.45;1.13;;;;;;;11.22;100.00;98160.56;5173600;27;20057;-57
2022/10/19 11:12:23;;;;;;;0.90;0.70;;;;;;;11.11;100.00;98082.22;5174209;27;20042;-59
2022/10/19 11:14:55;;;;;;;0.47;0.30;;;;;;;11.06;100.00;97963.53;5173626;27;20050;-61
2022/10/19 11:17:26;;;;;;;5.38;1.95;;;;;;;11.18;100.00;97978.75;5173490;27;20042;-59
2022/10/19 11:19:53;;;;;;;2.17;0.85;;;;;;;11.11;100.00;97926.66;5173611;27;20050;-60
2022/10/19 11:22:27;;;;;;;0.30;0.30;;;;;;;10.97;100.00;97784.13;5173334;27;20043;-57
2022/10/19 11:25:04;;;;;;;4.78;0.80;;;;;;;10.71;100.00;97788.97;5173936;27;20054;-60
2022/10/19 11:27:45;;;;;;;0.30;0.30;;;;;;;10.72;100.00;97782.28;5173290;27;20046;-60
2022/10/19 11:30:14;;;;;;;2.28;0.55;;;;;;;10.59;100.00;97751.03;5173220;27;20056;-58